Aviation Digital Data Service (ADDS)

Output produced by METARs form (1205 UTC 28 August 2016)
found at http://aviationweather.gov/adds/metars/
 
KCAR 281122Z 2812/2912 00000KT P6SM BKN250 
     FM282200 16004KT 3SM -SHRA OVC040 
     FM290400 17007KT P6SM BKN045 
     FM290600 18009KT P6SM BKN008